createdAt,value
2022-12-05T00:02:15.376Z,18.60
2022-12-05T00:04:44.575Z,43.63
2022-12-05T00:07:13.857Z,17.60
2022-12-05T00:09:43.044Z,37.25
2022-12-05T00:12:16.056Z,17.65
2022-12-05T00:14:45.104Z,17.85
2022-12-05T00:17:13.567Z,17.77
2022-12-05T00:19:53.583Z,17.52
2022-12-05T00:22:30.608Z,18.42
2022-12-05T00:25:01.413Z,20.98
2022-12-05T00:27:33.312Z,33.80
2022-12-05T00:30:01.741Z,29.63
2022-12-05T00:32:33.977Z,21.52
2022-12-05T00:35:02.240Z,21.45
2022-12-05T00:37:31.880Z,22.73
2022-12-05T00:40:02.178Z,19.33
2022-12-05T00:42:32.856Z,21.50
2022-12-05T00:45:05.378Z,23.27
2022-12-05T00:47:36.545Z,27.15
2022-12-05T00:50:06.977Z,17.05
2022-12-05T00:52:35.464Z,22.15
2022-12-05T00:55:04.585Z,18.70
2022-12-05T00:57:34.522Z,19.52
2022-12-05T01:00:12.830Z,20.20
2022-12-05T01:02:43.138Z,23.08
2022-12-05T01:05:11.700Z,16.98
2022-12-05T01:07:40.017Z,18.63
2022-12-05T01:10:10.167Z,17.45
2022-12-05T01:12:40.697Z,24.83
2022-12-05T01:15:11.325Z,19.50
2022-12-05T01:17:40.791Z,19.23
2022-12-05T01:20:16.453Z,18.45
2022-12-05T01:22:48.129Z,19.08
2022-12-05T01:25:16.893Z,18.35
2022-12-05T01:27:46.853Z,21.70
2022-12-05T01:30:24.603Z,25.98
2022-12-05T01:32:55.581Z,17.58
2022-12-05T01:35:24.033Z,17.38
2022-12-05T01:37:53.251Z,18.85
2022-12-05T01:40:29.175Z,18.02
2022-12-05T01:42:58.164Z,19.45
2022-12-05T01:45:38.812Z,22.05
2022-12-05T01:48:21.979Z,17.02
2022-12-05T01:50:51.349Z,16.98
2022-12-05T01:53:20.823Z,23.70
2022-12-05T01:55:50.560Z,17.05
2022-12-05T01:58:30.006Z,20.25
2022-12-05T02:00:58.013Z,17.85
2022-12-05T02:03:28.138Z,17.77
2022-12-05T02:05:58.660Z,19.23
2022-12-05T02:08:29.220Z,19.92
2022-12-05T02:10:58.925Z,19.85
2022-12-05T02:14:05.268Z,53.20
2022-12-05T02:17:12.117Z,26.73
2022-12-05T02:23:00.326Z,17.52
2022-12-05T02:26:00.426Z,17.73
2022-12-05T02:29:03.897Z,19.45
2022-12-05T02:32:14.704Z,19.08
2022-12-05T02:35:13.980Z,18.08
2022-12-05T02:37:54.660Z,18.27
2022-12-05T02:40:50.726Z,21.13
2022-12-05T02:43:30.878Z,17.20
2022-12-05T02:46:04.357Z,17.02
2022-12-05T02:48:35.228Z,16.67
2022-12-05T02:51:06.194Z,18.27
2022-12-05T02:53:39.625Z,17.02
2022-12-05T02:56:08.644Z,19.70
2022-12-05T02:58:54.306Z,17.80
2022-12-05T03:01:25.971Z,19.55
2022-12-05T03:04:00.886Z,15.75
2022-12-05T03:06:34.540Z,17.83
2022-12-05T03:09:20.298Z,17.50
2022-12-05T03:12:18.037Z,17.80
2022-12-05T03:14:54.063Z,18.73
2022-12-05T03:17:26.455Z,18.98
2022-12-05T03:20:34.515Z,17.55
2022-12-05T03:23:08.828Z,16.77
2022-12-05T03:26:17.938Z,15.80
2022-12-05T03:29:15.632Z,16.60
2022-12-05T03:32:03.340Z,17.17
2022-12-05T03:34:58.270Z,16.95
2022-12-05T03:37:46.936Z,17.30
2022-12-05T03:40:42.108Z,17.90
2022-12-05T03:43:34.175Z,18.02
2022-12-05T03:46:19.131Z,18.42
2022-12-05T03:49:03.185Z,18.08
2022-12-05T03:51:47.430Z,25.92
2022-12-05T03:54:34.289Z,18.73
2022-12-05T03:57:22.331Z,19.52
2022-12-05T04:00:15.664Z,19.67
2022-12-05T04:02:58.314Z,18.00
2022-12-05T04:05:52.370Z,23.75
2022-12-05T04:08:31.916Z,27.08
2022-12-05T04:11:06.519Z,22.92
2022-12-05T04:13:42.355Z,31.38
2022-12-05T04:16:51.255Z,23.85
2022-12-05T04:19:53.001Z,16.58
2022-12-05T04:22:25.654Z,35.65
2022-12-05T04:25:16.521Z,30.45
2022-12-05T04:28:03.615Z,25.13
2022-12-05T04:30:40.980Z,25.15
2022-12-05T04:33:33.822Z,28.40
2022-12-05T04:36:34.552Z,20.05
2022-12-05T04:39:14.588Z,17.90
2022-12-05T04:42:06.460Z,18.38
2022-12-05T04:44:53.273Z,18.45
2022-12-05T04:47:27.627Z,22.10
2022-12-05T04:49:57.489Z,17.73
2022-12-05T04:52:28.646Z,18.70
2022-12-05T04:55:05.698Z,18.52
2022-12-05T04:57:56.643Z,20.60
2022-12-05T05:00:29.512Z,17.40
2022-12-05T05:03:13.154Z,18.60
2022-12-05T05:05:48.230Z,18.27
2022-12-05T05:08:22.219Z,24.73
2022-12-05T05:11:28.799Z,22.42
2022-12-05T05:14:00.186Z,19.98
2022-12-05T05:16:33.778Z,17.58
2022-12-05T05:19:03.304Z,20.55
2022-12-05T05:21:37.016Z,19.40
2022-12-05T05:24:06.967Z,19.73
2022-12-05T05:26:41.360Z,23.27
2022-12-05T05:29:10.762Z,21.40
2022-12-05T05:31:40.833Z,21.08
2022-12-05T05:34:10.165Z,25.50
2022-12-05T05:36:41.148Z,21.17
2022-12-05T05:39:13.777Z,31.67
2022-12-05T05:41:44.011Z,23.67
2022-12-05T05:44:12.415Z,31.65
2022-12-05T05:46:41.040Z,21.88
2022-12-05T05:49:10.904Z,56.13
2022-12-05T05:51:40.639Z,66.28
2022-12-05T05:54:13.124Z,49.25
2022-12-05T05:56:41.962Z,43.85
2022-12-05T05:59:12.531Z,21.17
2022-12-05T06:01:41.925Z,17.15
2022-12-05T06:04:10.435Z,18.67
2022-12-05T06:06:42.205Z,20.30
2022-12-05T06:09:11.653Z,20.02
2022-12-05T06:11:40.944Z,22.27
2022-12-05T06:14:10.800Z,25.52
2022-12-05T06:16:39.588Z,20.38
2022-12-05T06:19:14.351Z,38.53
2022-12-05T06:21:44.830Z,20.15
2022-12-05T06:24:20.904Z,43.92
2022-12-05T06:26:50.419Z,23.67
2022-12-05T06:29:22.849Z,24.10
2022-12-05T06:31:54.070Z,20.70
2022-12-05T06:34:22.666Z,25.23
2022-12-05T06:36:50.910Z,24.65
2022-12-05T06:39:18.726Z,24.00
2022-12-05T06:41:47.713Z,20.23
2022-12-05T06:44:16.657Z,18.88
2022-12-05T06:46:46.558Z,23.60
2022-12-05T06:49:16.131Z,19.80
2022-12-05T06:51:48.692Z,24.35
2022-12-05T06:54:23.920Z,43.85
2022-12-05T06:56:53.551Z,46.17
2022-12-05T06:59:22.675Z,21.27
2022-12-05T07:01:51.664Z,30.55
2022-12-05T07:04:25.511Z,49.25
2022-12-05T07:06:55.950Z,93.15
2022-12-05T07:09:45.284Z,31.98
2022-12-05T07:12:21.141Z,57.05
2022-12-05T07:14:50.459Z,86.03
2022-12-05T07:17:23.027Z,23.60
2022-12-05T07:19:53.537Z,158.55
2022-12-05T07:22:23.901Z,33.58
2022-12-05T07:24:53.322Z,21.88
2022-12-05T07:27:27.718Z,48.88
2022-12-05T07:29:58.125Z,79.97
2022-12-05T07:32:34.460Z,94.85
2022-12-05T07:35:02.855Z,37.78
2022-12-05T07:37:32.692Z,39.35
2022-12-05T07:40:02.432Z,38.80
2022-12-05T07:42:35.353Z,27.58
2022-12-05T07:45:05.153Z,28.33
2022-12-05T07:47:35.055Z,25.40
2022-12-05T07:50:08.111Z,31.20
2022-12-05T07:52:39.561Z,25.58
2022-12-05T07:55:10.002Z,22.35
2022-12-05T07:57:39.299Z,40.88
2022-12-05T08:00:08.045Z,44.50
2022-12-05T08:02:44.070Z,26.50
2022-12-05T08:05:12.985Z,26.83
2022-12-05T08:07:44.161Z,30.40
2022-12-05T08:10:20.907Z,32.63
2022-12-05T08:12:51.731Z,21.00
2022-12-05T08:15:22.096Z,26.00
2022-12-05T08:17:52.073Z,26.38
2022-12-05T08:20:20.388Z,21.92
2022-12-05T08:22:54.081Z,24.90
2022-12-05T08:25:22.603Z,22.30
2022-12-05T08:27:52.187Z,29.17
2022-12-05T08:30:23.885Z,26.60
2022-12-05T08:32:56.313Z,28.60
2022-12-05T08:35:25.569Z,27.67
2022-12-05T08:37:54.120Z,23.90
2022-12-05T08:40:26.813Z,21.70
2022-12-05T08:42:58.224Z,36.47
2022-12-05T08:45:28.164Z,24.48
2022-12-05T08:47:56.592Z,35.67
2022-12-05T08:50:26.283Z,25.42
2022-12-05T08:52:57.383Z,22.08
2022-12-05T08:55:25.226Z,29.63
2022-12-05T08:57:56.671Z,37.83
2022-12-05T09:00:36.948Z,28.63
2022-12-05T09:03:06.574Z,27.02
2022-12-05T09:05:42.247Z,33.67
2022-12-05T09:08:12.780Z,22.75
2022-12-05T09:10:41.912Z,23.02
2022-12-05T09:13:17.888Z,21.13
2022-12-05T09:15:46.131Z,25.60
2022-12-05T09:18:15.409Z,26.77
2022-12-05T09:20:55.377Z,33.47
2022-12-05T09:23:24.550Z,32.92
2022-12-05T09:26:02.055Z,19.52
2022-12-05T09:28:31.911Z,26.27
2022-12-05T09:31:05.555Z,21.27
2022-12-05T09:33:43.371Z,22.75
2022-12-05T09:36:18.891Z,24.25
2022-12-05T09:38:52.049Z,25.60
2022-12-05T09:41:55.600Z,21.38
2022-12-05T09:44:52.767Z,23.77
2022-12-05T09:47:36.588Z,26.00
2022-12-05T09:50:23.095Z,23.40
2022-12-05T09:53:25.170Z,29.85
2022-12-05T09:56:05.926Z,21.88
2022-12-05T09:58:49.495Z,43.20
2022-12-05T10:01:27.776Z,21.38
2022-12-05T10:04:23.333Z,21.77
2022-12-05T10:07:21.030Z,21.75
2022-12-05T10:10:20.331Z,32.40
2022-12-05T10:13:07.976Z,26.58
2022-12-05T10:15:57.914Z,28.90
2022-12-05T10:18:44.961Z,21.85
2022-12-05T10:21:22.837Z,25.98
2022-12-05T10:23:57.970Z,21.90
2022-12-05T10:29:43.767Z,23.30
2022-12-05T10:32:32.681Z,22.65
2022-12-05T10:35:20.771Z,22.42
2022-12-05T10:38:00.342Z,22.23
2022-12-05T10:40:41.233Z,22.77
2022-12-05T10:43:14.670Z,23.83
2022-12-05T10:45:50.655Z,17.33
2022-12-05T10:48:21.807Z,19.80
2022-12-05T10:50:53.204Z,22.10
2022-12-05T10:53:27.514Z,32.90
2022-12-05T10:56:29.731Z,43.45
2022-12-05T10:58:58.036Z,34.15
2022-12-05T11:01:28.117Z,24.38
2022-12-05T11:04:03.474Z,21.05
2022-12-05T11:06:33.336Z,21.40
2022-12-05T11:09:39.388Z,20.80
2022-12-05T11:12:18.615Z,20.40
2022-12-05T11:15:02.783Z,19.65
2022-12-05T11:17:44.013Z,22.50
2022-12-05T11:20:22.363Z,22.65
2022-12-05T11:23:28.794Z,21.17
2022-12-05T11:26:06.619Z,20.05
2022-12-05T11:28:38.845Z,27.05
2022-12-05T11:31:14.526Z,21.30
2022-12-05T11:34:06.586Z,19.35
2022-12-05T11:36:47.237Z,23.00
2022-12-05T11:45:23.960Z,24.17
2022-12-05T11:48:30.052Z,23.17
2022-12-05T11:51:15.640Z,25.15
2022-12-05T11:54:12.076Z,28.33
2022-12-05T11:57:01.319Z,24.02
2022-12-05T12:00:16.404Z,25.65
2022-12-05T12:03:29.852Z,18.15
2022-12-05T12:06:29.015Z,24.48
2022-12-05T12:09:06.801Z,29.00
2022-12-05T12:12:08.035Z,28.20
2022-12-05T12:15:09.611Z,26.83
2022-12-05T12:18:10.268Z,20.85
2022-12-05T12:21:17.874Z,20.35
2022-12-05T12:24:15.557Z,19.80
2022-12-05T12:27:38.284Z,27.65
2022-12-05T12:30:41.275Z,30.13
2022-12-05T12:33:38.135Z,27.00
2022-12-05T12:36:27.834Z,24.35
2022-12-05T12:39:08.238Z,22.45
2022-12-05T12:42:17.360Z,31.35
2022-12-05T12:45:08.668Z,22.33
2022-12-05T12:48:11.515Z,27.02
2022-12-05T12:50:54.194Z,25.60
2022-12-05T12:53:25.494Z,46.60
2022-12-05T12:56:23.331Z,23.52
2022-12-05T12:58:59.905Z,21.50
2022-12-05T13:01:43.956Z,29.60
2022-12-05T13:04:31.010Z,29.88
2022-12-05T13:07:12.364Z,32.20
2022-12-05T13:09:52.142Z,23.15
2022-12-05T13:12:37.646Z,24.52
2022-12-05T13:15:17.166Z,27.48
2022-12-05T13:17:49.256Z,22.27
2022-12-05T13:20:26.117Z,23.58
2022-12-05T13:22:59.153Z,31.13
2022-12-05T13:25:37.685Z,33.63
2022-12-05T13:28:33.709Z,55.35
2022-12-05T13:31:08.145Z,40.63
2022-12-05T13:33:45.730Z,24.10
2022-12-05T13:36:36.450Z,30.42
2022-12-05T13:39:39.676Z,26.45
2022-12-05T13:42:32.905Z,25.80
2022-12-05T13:45:26.586Z,27.08
2022-12-05T13:48:05.280Z,28.13
2022-12-05T13:50:58.368Z,27.70
2022-12-05T13:53:40.144Z,27.83
2022-12-05T13:56:32.634Z,27.80
2022-12-05T13:59:04.163Z,26.98
2022-12-05T14:01:58.395Z,29.48
2022-12-05T14:05:25.215Z,25.95
2022-12-05T14:08:32.873Z,32.97
2022-12-05T14:11:06.210Z,33.42
2022-12-05T14:13:42.560Z,32.80
2022-12-05T14:16:44.512Z,35.40
2022-12-05T14:19:48.637Z,32.20
2022-12-05T14:22:32.762Z,27.38
2022-12-05T14:25:14.857Z,31.40
2022-12-05T14:28:19.859Z,34.65
2022-12-05T14:31:30.676Z,34.45
2022-12-05T14:34:40.363Z,30.63
2022-12-05T14:37:46.861Z,36.15
2022-12-05T14:40:39.930Z,32.20
2022-12-05T14:43:32.047Z,32.08
2022-12-05T14:46:30.650Z,34.03
2022-12-05T14:49:41.686Z,37.92
2022-12-05T14:52:23.788Z,37.28
2022-12-05T14:55:12.457Z,40.78
2022-12-05T14:58:16.409Z,58.17
2022-12-05T15:01:02.970Z,138.23
2022-12-05T15:04:32.851Z,61.15
2022-12-05T15:07:10.637Z,37.85
2022-12-05T15:09:59.377Z,28.80
2022-12-05T15:12:52.516Z,36.38
2022-12-05T15:15:59.515Z,27.15
2022-12-05T15:18:43.120Z,43.70
2022-12-05T15:21:25.682Z,51.10
2022-12-05T15:24:18.285Z,41.05
2022-12-05T15:26:56.558Z,46.63
2022-12-05T15:30:08.204Z,43.63
2022-12-05T15:33:14.064Z,46.33
2022-12-05T15:35:48.717Z,98.78
2022-12-05T15:38:32.972Z,48.20
2022-12-05T15:41:05.246Z,39.55
2022-12-05T15:43:40.126Z,34.75
2022-12-05T15:46:32.642Z,38.78
2022-12-05T15:49:29.231Z,42.45
2022-12-05T15:52:32.734Z,39.22
2022-12-05T15:55:17.357Z,43.60
2022-12-05T15:58:12.633Z,33.08
2022-12-05T16:01:00.921Z,37.25
2022-12-05T16:03:45.194Z,42.47
2022-12-05T16:06:29.200Z,38.85
2022-12-05T16:09:01.171Z,36.83
2022-12-05T16:11:33.787Z,32.22
2022-12-05T16:17:35.566Z,40.15
2022-12-05T16:20:36.155Z,43.17
2022-12-05T16:23:22.079Z,35.00
2022-12-05T16:26:16.714Z,34.95
2022-12-05T16:29:04.727Z,36.47
2022-12-05T16:31:39.280Z,33.80
2022-12-05T16:34:18.269Z,41.03
2022-12-05T16:36:51.359Z,38.60
2022-12-05T16:39:30.887Z,38.10
2022-12-05T16:42:05.102Z,43.03
2022-12-05T16:45:04.166Z,35.20
2022-12-05T16:47:44.237Z,39.28
2022-12-05T16:50:41.686Z,37.50
2022-12-05T16:53:20.351Z,41.42
2022-12-05T16:56:04.024Z,43.03
2022-12-05T16:58:42.496Z,43.63
2022-12-05T17:01:21.145Z,73.47
2022-12-05T17:03:51.696Z,73.60
2022-12-05T17:06:27.223Z,54.55
2022-12-05T17:08:56.168Z,53.53
2022-12-05T17:11:38.593Z,115.38
2022-12-05T17:14:11.829Z,62.75
2022-12-05T17:16:52.344Z,67.78
2022-12-05T17:19:45.385Z,43.55
2022-12-05T17:22:19.400Z,43.83
2022-12-05T17:25:00.410Z,39.80
2022-12-05T17:27:31.153Z,49.78
2022-12-05T17:30:06.549Z,47.40
2022-12-05T17:32:42.297Z,44.53
2022-12-05T17:35:18.527Z,54.63
2022-12-05T17:37:50.431Z,49.70
2022-12-05T17:40:27.889Z,41.08
2022-12-05T17:42:59.911Z,63.25
2022-12-05T17:45:38.104Z,41.05
2022-12-05T17:48:36.519Z,57.47
2022-12-05T17:51:32.905Z,68.85
2022-12-05T17:54:15.411Z,65.13
2022-12-05T17:56:46.343Z,56.63
2022-12-05T17:59:16.705Z,39.65
2022-12-05T18:01:49.608Z,70.35
2022-12-05T18:04:35.971Z,71.70
2022-12-05T18:07:29.487Z,70.53
2022-12-05T18:10:31.176Z,46.97
2022-12-05T18:13:03.536Z,55.53
2022-12-05T18:15:39.484Z,51.08
2022-12-05T18:18:32.058Z,54.55
2022-12-05T18:21:16.838Z,58.80
2022-12-05T18:23:49.366Z,166.48
2022-12-05T18:26:29.202Z,60.70
2022-12-05T18:29:14.000Z,59.17
2022-12-05T18:32:34.883Z,120.47
2022-12-05T18:35:41.082Z,114.82
2022-12-05T18:38:28.956Z,67.47
2022-12-05T18:41:20.680Z,63.28
2022-12-05T18:43:55.664Z,61.03
2022-12-05T18:46:35.090Z,97.47
2022-12-05T18:49:11.068Z,68.47
2022-12-05T18:51:45.312Z,174.10
2022-12-05T18:54:26.392Z,108.22
2022-12-05T18:57:02.628Z,69.63
2022-12-05T18:59:34.762Z,69.00
2022-12-05T19:02:06.300Z,69.68
2022-12-05T19:04:44.066Z,45.60
2022-12-05T19:07:17.242Z,70.43
2022-12-05T19:09:55.331Z,50.42
2022-12-05T19:15:41.231Z,64.70
2022-12-05T19:18:32.377Z,60.60
2022-12-05T19:21:15.887Z,84.18
2022-12-05T19:24:03.354Z,59.38
2022-12-05T19:26:47.649Z,54.65
2022-12-05T19:29:29.535Z,58.05
2022-12-05T19:32:14.734Z,52.67
2022-12-05T19:35:24.958Z,49.92
2022-12-05T19:39:03.729Z,48.92
2022-12-05T19:41:44.121Z,44.10
2022-12-05T19:51:49.341Z,63.85
2022-12-05T19:54:32.318Z,57.20
2022-12-05T19:57:19.001Z,45.25
2022-12-05T19:59:52.343Z,58.13
2022-12-05T20:02:39.707Z,67.80
2022-12-05T20:05:20.620Z,48.97
2022-12-05T20:07:57.731Z,45.87
2022-12-05T20:10:33.881Z,44.85
2022-12-05T20:13:24.122Z,46.88
2022-12-05T20:16:04.702Z,50.03
2022-12-05T20:18:40.337Z,49.33
2022-12-05T20:21:11.829Z,41.37
2022-12-05T20:24:01.232Z,48.97
2022-12-05T20:26:42.993Z,45.50
2022-12-05T20:29:19.616Z,45.63
2022-12-05T20:31:52.401Z,51.05
2022-12-05T20:34:21.481Z,49.38
2022-12-05T20:36:50.357Z,44.67
2022-12-05T20:39:21.983Z,43.63
2022-12-05T20:41:56.385Z,48.88
2022-12-05T20:44:38.052Z,46.75
2022-12-05T20:49:47.531Z,50.75
2022-12-05T20:52:20.557Z,59.00
2022-12-05T20:54:50.082Z,51.50
2022-12-05T20:57:22.116Z,53.35
2022-12-05T20:59:54.760Z,48.10
2022-12-05T21:02:47.999Z,62.60
2022-12-05T21:05:23.099Z,46.92
2022-12-05T21:07:51.956Z,48.47
2022-12-05T21:10:21.589Z,49.40
2022-12-05T21:13:27.361Z,55.35
2022-12-05T21:16:08.322Z,66.88
2022-12-05T21:18:39.575Z,56.03
2022-12-05T21:21:37.345Z,49.15
2022-12-05T21:24:18.262Z,55.38
2022-12-05T21:26:54.647Z,58.20
2022-12-05T21:32:55.759Z,45.43
2022-12-05T21:35:47.825Z,55.13
2022-12-05T21:38:20.972Z,53.90
2022-12-05T21:41:07.532Z,56.45
2022-12-05T21:43:40.232Z,47.33
2022-12-05T21:46:14.786Z,81.32
2022-12-05T21:48:54.834Z,106.68
2022-12-05T21:51:28.327Z,43.80
2022-12-05T21:53:58.183Z,84.30
2022-12-05T21:56:29.823Z,60.35
2022-12-05T21:59:09.248Z,64.57
2022-12-05T22:01:49.271Z,142.40
2022-12-05T22:04:19.031Z,59.63
2022-12-05T22:06:49.041Z,57.08
2022-12-05T22:09:18.417Z,59.80
2022-12-05T22:11:52.196Z,56.75
2022-12-05T22:14:22.884Z,49.88
2022-12-05T22:16:58.464Z,45.83
2022-12-05T22:19:38.778Z,48.20
2022-12-05T22:22:22.381Z,45.75
2022-12-05T22:24:53.065Z,54.55
2022-12-05T22:27:23.418Z,62.10
2022-12-05T22:29:52.958Z,54.88
2022-12-05T22:32:21.273Z,52.17
2022-12-05T22:34:59.271Z,55.55
2022-12-05T22:37:32.861Z,46.45
2022-12-05T22:40:02.334Z,110.10
2022-12-05T22:42:35.619Z,58.72
2022-12-05T22:45:08.796Z,60.47
2022-12-05T22:47:36.924Z,40.80
2022-12-05T22:50:05.963Z,45.85
2022-12-05T22:52:40.344Z,43.05
2022-12-05T22:57:42.564Z,47.88
2022-12-05T23:00:13.436Z,86.13
2022-12-05T23:02:42.002Z,73.93
2022-12-05T23:05:10.625Z,72.50
2022-12-05T23:07:40.743Z,55.30
2022-12-05T23:10:11.044Z,55.72
2022-12-05T23:12:39.947Z,45.42
2022-12-05T23:15:09.596Z,45.25
2022-12-05T23:17:42.057Z,42.25
2022-12-05T23:20:15.837Z,102.43
2022-12-05T23:22:43.917Z,114.40
2022-12-05T23:25:13.797Z,41.25
2022-12-05T23:27:46.204Z,43.13
2022-12-05T23:30:26.077Z,44.67
2022-12-05T23:32:55.057Z,40.35
2022-12-05T23:35:32.962Z,46.65
2022-12-05T23:38:01.704Z,43.63
2022-12-05T23:40:33.400Z,40.67
2022-12-05T23:43:02.638Z,50.72
2022-12-05T23:45:35.428Z,83.15
2022-12-05T23:48:04.811Z,56.53
2022-12-05T23:50:38.491Z,41.78
2022-12-05T23:53:09.388Z,44.70
2022-12-05T23:55:44.078Z,43.60
2022-12-05T23:58:13.363Z,38.85
